createdAt,value
2022-08-25T00:01:59.524Z,84.86
2022-08-25T00:04:29.723Z,84.70
2022-08-25T00:07:02.242Z,85.96
2022-08-25T00:09:32.050Z,85.93
2022-08-25T00:11:59.528Z,85.68
2022-08-25T00:14:36.062Z,86.26
2022-08-25T00:17:06.015Z,86.77
2022-08-25T00:19:36.725Z,87.08
2022-08-25T00:22:04.777Z,86.75
2022-08-25T00:24:31.941Z,86.03
2022-08-25T00:27:01.792Z,85.72
2022-08-25T00:29:30.217Z,85.08
2022-08-25T00:31:58.087Z,84.94
2022-08-25T00:34:35.544Z,84.96
2022-08-25T00:37:07.235Z,84.96
2022-08-25T00:39:34.754Z,84.99
2022-08-25T00:42:03.274Z,85.24
2022-08-25T00:44:31.965Z,85.78
2022-08-25T00:47:01.331Z,85.43
2022-08-25T00:49:44.173Z,85.96
2022-08-25T00:52:17.666Z,85.39
2022-08-25T00:55:08.018Z,85.50
2022-08-25T00:57:51.813Z,85.71
2022-08-25T01:00:23.108Z,85.73
2022-08-25T01:02:50.771Z,85.20
2022-08-25T01:05:19.492Z,84.61
2022-08-25T01:07:46.521Z,84.74
2022-08-25T01:10:14.477Z,84.84
2022-08-25T01:12:41.841Z,84.59
2022-08-25T01:15:13.185Z,85.24
2022-08-25T01:17:53.357Z,85.04
2022-08-25T01:20:29.176Z,85.37
2022-08-25T01:22:57.608Z,85.08
2022-08-25T01:25:46.354Z,85.12
2022-08-25T01:28:13.417Z,84.88
2022-08-25T01:30:41.070Z,86.05
2022-08-25T01:33:11.970Z,85.77
2022-08-25T01:35:40.834Z,85.60
2022-08-25T01:38:08.984Z,85.33
2022-08-25T01:40:38.190Z,86.95
2022-08-25T01:43:27.500Z,88.59
2022-08-25T01:45:54.305Z,89.15
2022-08-25T01:48:21.116Z,88.89
2022-08-25T01:50:47.881Z,88.91
2022-08-25T01:53:27.161Z,88.83
2022-08-25T01:56:01.969Z,87.97
2022-08-25T01:58:36.038Z,87.57
2022-08-25T02:01:08.136Z,87.86
2022-08-25T02:03:42.355Z,87.76
2022-08-25T02:06:17.006Z,87.70
2022-08-25T02:08:44.124Z,87.30
2022-08-25T02:11:14.382Z,86.86
2022-08-25T02:13:42.949Z,86.94
2022-08-25T02:16:20.787Z,87.67
2022-08-25T02:18:48.503Z,87.98
2022-08-25T02:21:15.444Z,88.20
2022-08-25T02:23:43.111Z,88.26
2022-08-25T02:26:10.819Z,87.85
2022-08-25T02:28:37.938Z,88.94
2022-08-25T02:31:06.072Z,89.11
2022-08-25T02:33:32.867Z,89.36
2022-08-25T02:36:01.171Z,88.98
2022-08-25T02:38:30.311Z,88.29
2022-08-25T02:40:59.245Z,88.28
2022-08-25T02:43:27.741Z,87.67
2022-08-25T02:45:56.433Z,87.63
2022-08-25T02:48:23.541Z,87.36
2022-08-25T02:50:52.685Z,87.22
2022-08-25T02:53:22.536Z,87.29
2022-08-25T02:55:49.310Z,86.91
2022-08-25T02:58:16.167Z,87.45
2022-08-25T03:00:43.199Z,87.17
2022-08-25T03:03:10.109Z,87.14
2022-08-25T03:05:36.916Z,86.41
2022-08-25T03:08:06.381Z,87.50
2022-08-25T03:10:33.641Z,87.51
2022-08-25T03:13:00.403Z,87.93
2022-08-25T03:15:27.881Z,88.96
2022-08-25T03:17:59.920Z,89.45
2022-08-25T03:20:28.034Z,90.03
2022-08-25T03:22:54.796Z,90.07
2022-08-25T03:25:40.161Z,89.72
2022-08-25T03:28:08.488Z,89.10
2022-08-25T03:30:35.435Z,88.61
2022-08-25T03:33:02.388Z,88.56
2022-08-25T03:35:29.332Z,88.32
2022-08-25T03:37:59.283Z,87.74
2022-08-25T03:40:27.036Z,87.55
2022-08-25T03:42:56.992Z,87.58
2022-08-25T03:45:25.118Z,87.52
2022-08-25T03:47:54.109Z,87.58
2022-08-25T03:50:22.770Z,87.87
2022-08-25T03:52:55.384Z,88.05
2022-08-25T03:55:25.277Z,87.91
2022-08-25T03:57:54.036Z,88.08
2022-08-25T04:00:23.207Z,87.96
2022-08-25T04:02:50.128Z,87.78
2022-08-25T04:05:17.374Z,87.45
2022-08-25T04:07:44.142Z,88.08
2022-08-25T04:10:12.500Z,87.97
2022-08-25T04:12:39.465Z,87.62
2022-08-25T04:15:08.236Z,87.82
2022-08-25T04:17:39.853Z,87.71
2022-08-25T04:20:09.730Z,87.94
2022-08-25T04:22:38.541Z,87.41
2022-08-25T04:25:07.525Z,88.15
2022-08-25T04:27:36.207Z,87.63
2022-08-25T04:30:03.940Z,87.42
2022-08-25T04:32:31.343Z,86.80
2022-08-25T04:34:58.432Z,86.19
2022-08-25T04:37:25.181Z,86.30
2022-08-25T04:39:52.012Z,86.45
2022-08-25T04:42:18.848Z,87.21
2022-08-25T04:44:45.653Z,87.69
2022-08-25T04:47:12.451Z,87.93
2022-08-25T04:49:39.716Z,88.08
2022-08-25T04:52:13.048Z,88.17
2022-08-25T04:54:41.676Z,88.89
2022-08-25T04:57:08.509Z,88.91
2022-08-25T04:59:35.408Z,89.03
2022-08-25T05:02:03.337Z,88.73
2022-08-25T05:04:32.130Z,88.57
2022-08-25T05:06:59.938Z,88.42
2022-08-25T05:09:28.047Z,88.23
2022-08-25T05:11:55.503Z,88.03
2022-08-25T05:14:26.164Z,87.70
2022-08-25T05:16:54.375Z,88.00
2022-08-25T05:19:21.557Z,88.20
2022-08-25T05:21:48.413Z,87.79
2022-08-25T05:24:15.189Z,88.50
2022-08-25T05:26:43.696Z,89.55
2022-08-25T05:29:11.637Z,89.18
2022-08-25T05:31:42.252Z,88.45
2022-08-25T05:34:10.525Z,88.69
2022-08-25T05:36:38.533Z,88.13
2022-08-25T05:39:05.308Z,88.41
2022-08-25T05:41:33.559Z,87.91
2022-08-25T05:44:00.529Z,88.20
2022-08-25T05:46:27.357Z,88.12
2022-08-25T05:48:59.043Z,88.20
2022-08-25T05:51:27.216Z,88.38
2022-08-25T05:53:54.226Z,88.41
2022-08-25T05:56:21.817Z,89.21
2022-08-25T05:58:50.262Z,89.42
2022-08-25T06:01:45.895Z,89.71
2022-08-25T06:04:15.691Z,89.71
2022-08-25T06:06:42.729Z,89.88
2022-08-25T06:09:10.507Z,89.82
2022-08-25T06:11:40.165Z,90.30
2022-08-25T06:14:09.602Z,90.52
2022-08-25T06:16:38.722Z,90.03
2022-08-25T06:19:07.565Z,90.17
2022-08-25T06:21:34.493Z,90.30
2022-08-25T06:24:01.943Z,90.50
2022-08-25T06:26:28.805Z,90.68
2022-08-25T06:28:55.609Z,90.47
2022-08-25T06:31:23.299Z,90.57
2022-08-25T06:33:50.972Z,90.90
2022-08-25T06:36:19.283Z,91.03
2022-08-25T06:38:47.012Z,91.31
2022-08-25T06:41:14.253Z,90.92
2022-08-25T06:43:47.969Z,90.91
2022-08-25T06:46:21.625Z,91.02
2022-08-25T06:48:49.593Z,91.58
2022-08-25T06:51:19.772Z,91.86
2022-08-25T06:53:49.163Z,93.09
2022-08-25T06:56:19.129Z,93.35
2022-08-25T06:58:46.885Z,94.32
2022-08-25T07:01:26.838Z,94.21
2022-08-25T07:03:59.895Z,95.39
2022-08-25T07:06:31.739Z,95.42
2022-08-25T07:08:59.830Z,95.34
2022-08-25T07:11:26.782Z,95.65
2022-08-25T07:13:54.286Z,94.59
2022-08-25T07:16:21.673Z,94.94
2022-08-25T07:18:49.390Z,94.97
2022-08-25T07:21:17.488Z,95.80
2022-08-25T07:23:46.501Z,95.26
2022-08-25T07:26:39.336Z,95.05
2022-08-25T07:29:32.141Z,94.75
2022-08-25T07:32:01.459Z,92.83
2022-08-25T07:37:47.760Z,86.24
2022-08-25T07:40:21.647Z,86.39
2022-08-25T07:42:50.288Z,86.77
2022-08-25T07:45:20.630Z,84.41
2022-08-25T07:47:48.780Z,82.69
2022-08-25T07:50:18.870Z,78.02
2022-08-25T07:52:52.204Z,75.24
2022-08-25T07:55:24.341Z,73.93
2022-08-25T07:57:55.467Z,72.91
2022-08-25T08:00:24.022Z,71.72
2022-08-25T08:02:51.573Z,71.19
2022-08-25T08:05:18.409Z,69.08
2022-08-25T08:07:45.194Z,68.70
2022-08-25T08:13:02.180Z,67.73
2022-08-25T08:15:29.785Z,66.83
2022-08-25T08:18:00.794Z,65.44
2022-08-25T08:20:28.989Z,67.10
2022-08-25T08:22:56.045Z,64.09
2022-08-25T08:25:27.108Z,63.03
2022-08-25T08:27:56.461Z,62.79
2022-08-25T08:30:26.328Z,62.99
2022-08-25T08:33:11.862Z,62.95
2022-08-25T08:35:42.933Z,62.97
2022-08-25T08:38:17.328Z,62.68
2022-08-25T08:41:33.862Z,63.63
2022-08-25T08:44:37.849Z,61.67
2022-08-25T08:47:25.481Z,61.17
2022-08-25T08:50:13.136Z,61.53
2022-08-25T08:53:07.420Z,59.84
2022-08-25T08:55:41.997Z,58.70
2022-08-25T08:58:26.576Z,56.69
2022-08-25T09:00:58.437Z,56.67
2022-08-25T09:03:42.258Z,58.30
2022-08-25T09:06:18.825Z,58.64
2022-08-25T09:08:46.142Z,57.78
2022-08-25T09:11:23.735Z,56.44
2022-08-25T09:14:30.665Z,56.36
2022-08-25T09:17:17.851Z,54.96
2022-08-25T09:20:18.597Z,55.49
2022-08-25T09:23:01.281Z,55.45
2022-08-25T09:26:22.096Z,52.81
2022-08-25T09:28:55.304Z,53.12
2022-08-25T09:31:29.885Z,52.89
2022-08-25T09:34:00.892Z,53.69
2022-08-25T09:36:28.990Z,53.68
2022-08-25T09:38:55.989Z,53.90
2022-08-25T09:42:00.376Z,54.28
2022-08-25T09:44:41.402Z,53.29
2022-08-25T09:47:24.660Z,52.80
2022-08-25T09:50:00.327Z,53.26
2022-08-25T09:52:37.521Z,52.84
2022-08-25T09:55:15.897Z,52.42
2022-08-25T09:57:57.057Z,50.84
2022-08-25T10:00:33.674Z,52.10
2022-08-25T10:03:22.817Z,50.77
2022-08-25T10:06:14.940Z,49.50
2022-08-25T10:08:44.438Z,49.76
2022-08-25T10:11:34.565Z,49.44
2022-08-25T10:14:16.441Z,48.91
2022-08-25T10:16:47.014Z,48.71
2022-08-25T10:19:26.936Z,47.48
2022-08-25T10:22:13.235Z,46.72
2022-08-25T10:24:44.050Z,46.58
2022-08-25T10:27:41.737Z,44.83
2022-08-25T10:30:57.091Z,45.50
2022-08-25T10:33:47.721Z,45.83
2022-08-25T10:36:22.821Z,46.29
2022-08-25T10:38:57.123Z,45.47
2022-08-25T10:41:58.875Z,45.73
2022-08-25T10:44:55.073Z,45.14
2022-08-25T10:48:15.549Z,44.63
2022-08-25T10:51:25.571Z,45.48
2022-08-25T10:54:17.963Z,45.64
2022-08-25T10:57:00.945Z,44.26
2022-08-25T10:59:50.456Z,44.21
2022-08-25T11:03:20.425Z,43.74
2022-08-25T11:05:59.778Z,41.67
2022-08-25T11:08:39.361Z,42.22
2022-08-25T11:11:21.514Z,41.60
2022-08-25T11:14:09.332Z,42.65
2022-08-25T11:16:48.558Z,43.30
2022-08-25T11:19:38.825Z,41.38
2022-08-25T11:22:24.199Z,43.07
2022-08-25T11:25:20.203Z,42.09
2022-08-25T11:28:12.266Z,42.03
2022-08-25T11:30:40.376Z,42.22
2022-08-25T11:33:12.626Z,41.94
2022-08-25T11:35:44.433Z,41.74
2022-08-25T11:38:26.545Z,41.50
2022-08-25T11:41:30.832Z,40.85
2022-08-25T11:44:33.994Z,41.26
2022-08-25T11:47:00.779Z,41.35
2022-08-25T11:49:58.656Z,41.11
2022-08-25T11:52:34.553Z,41.44
2022-08-25T11:55:15.692Z,40.26
2022-08-25T11:57:45.784Z,40.37
2022-08-25T12:00:42.760Z,40.81
2022-08-25T12:03:34.492Z,40.83
2022-08-25T12:06:33.501Z,40.29
2022-08-25T12:09:00.581Z,41.80
2022-08-25T12:11:39.963Z,40.73
2022-08-25T12:14:28.199Z,40.23
2022-08-25T12:16:55.375Z,38.82
2022-08-25T12:19:38.050Z,38.59
2022-08-25T12:22:04.860Z,37.94
2022-08-25T12:24:47.886Z,37.10
2022-08-25T12:27:44.133Z,37.72
2022-08-25T12:30:41.175Z,37.20
2022-08-25T12:33:44.333Z,36.67
2022-08-25T12:36:27.018Z,35.46
2022-08-25T12:38:54.013Z,34.79
2022-08-25T12:41:31.059Z,34.32
2022-08-25T12:44:49.871Z,35.54
2022-08-25T12:47:34.161Z,34.36
2022-08-25T12:50:47.796Z,33.89
2022-08-25T12:53:36.357Z,35.06
2022-08-25T12:56:10.389Z,34.65
2022-08-25T12:59:06.041Z,34.38
2022-08-25T13:01:56.559Z,34.20
2022-08-25T13:05:23.786Z,34.51
2022-08-25T13:08:15.175Z,34.57
2022-08-25T13:10:57.588Z,34.52
2022-08-25T13:13:56.378Z,34.57
2022-08-25T13:16:30.198Z,34.25
2022-08-25T13:19:01.690Z,34.10
2022-08-25T13:21:41.253Z,34.48
2022-08-25T13:24:26.623Z,33.88
2022-08-25T13:27:02.278Z,33.80
2022-08-25T13:29:40.768Z,33.13
2022-08-25T13:32:14.389Z,33.09
2022-08-25T13:34:43.762Z,31.74
2022-08-25T13:37:31.467Z,32.63
2022-08-25T13:40:17.751Z,33.04
2022-08-25T13:42:58.457Z,32.68
2022-08-25T13:45:30.045Z,32.40
2022-08-25T13:47:58.739Z,32.43
2022-08-25T13:50:31.630Z,31.41
2022-08-25T13:53:11.589Z,30.74
2022-08-25T13:55:54.859Z,31.28
2022-08-25T13:58:39.509Z,30.41
2022-08-25T14:01:47.886Z,29.85
2022-08-25T14:04:25.993Z,29.29
2022-08-25T14:07:26.567Z,30.39
2022-08-25T14:10:30.965Z,29.65
2022-08-25T14:13:16.509Z,30.01
2022-08-25T14:15:46.353Z,30.83
2022-08-25T14:18:31.173Z,31.16
2022-08-25T14:21:11.299Z,30.87
2022-08-25T14:23:39.709Z,30.92
2022-08-25T14:26:06.801Z,30.07
2022-08-25T14:28:34.882Z,30.48
2022-08-25T14:31:08.400Z,29.50
2022-08-25T14:33:50.244Z,28.83
2022-08-25T14:36:18.685Z,29.47
2022-08-25T14:38:47.970Z,29.16
2022-08-25T14:41:23.965Z,29.96
2022-08-25T14:43:50.890Z,30.23
2022-08-25T14:46:27.619Z,30.06
2022-08-25T14:49:00.579Z,28.74
2022-08-25T14:51:31.973Z,29.00
2022-08-25T14:54:03.959Z,27.79
2022-08-25T14:56:32.381Z,28.03
2022-08-25T14:59:00.477Z,27.96
2022-08-25T15:01:30.050Z,28.17
2022-08-25T15:04:11.756Z,28.09
2022-08-25T15:06:39.653Z,29.27
2022-08-25T15:09:16.655Z,29.69
2022-08-25T15:11:50.572Z,31.48
2022-08-25T15:14:29.041Z,30.66
2022-08-25T15:17:02.314Z,28.36
2022-08-25T15:19:29.313Z,27.80
2022-08-25T15:21:58.051Z,27.61
2022-08-25T15:24:27.347Z,27.56
2022-08-25T15:27:05.742Z,30.61
2022-08-25T15:29:37.033Z,30.90
2022-08-25T15:32:07.284Z,30.96
2022-08-25T15:34:35.739Z,30.63
2022-08-25T15:37:13.083Z,29.64
2022-08-25T15:39:42.146Z,30.37
2022-08-25T15:42:15.286Z,32.03
2022-08-25T15:44:53.387Z,32.96
2022-08-25T15:47:21.962Z,33.18
2022-08-25T15:49:48.912Z,33.97
2022-08-25T15:52:16.016Z,33.19
2022-08-25T15:54:42.770Z,34.21
2022-08-25T15:57:18.339Z,35.31
2022-08-25T15:59:51.850Z,35.31
2022-08-25T16:02:20.816Z,35.84
2022-08-25T16:04:48.188Z,34.75
2022-08-25T16:07:14.993Z,35.58
2022-08-25T16:09:42.130Z,36.23
2022-08-25T16:12:11.094Z,35.95
2022-08-25T16:14:40.429Z,36.59
2022-08-25T16:17:07.700Z,36.51
2022-08-25T16:19:38.150Z,36.02
2022-08-25T16:22:08.995Z,35.77
2022-08-25T16:24:45.124Z,35.70
2022-08-25T16:27:13.173Z,36.72
2022-08-25T16:29:43.561Z,37.27
2022-08-25T16:32:13.605Z,37.16
2022-08-25T16:34:41.676Z,37.13
2022-08-25T16:37:09.158Z,37.00
2022-08-25T16:39:37.049Z,38.16
2022-08-25T16:42:09.989Z,37.59
2022-08-25T16:44:39.868Z,38.35
2022-08-25T16:47:08.954Z,38.58
2022-08-25T16:49:36.932Z,37.99
2022-08-25T16:52:24.865Z,38.35
2022-08-25T16:55:15.238Z,38.68
2022-08-25T16:57:54.485Z,38.87
2022-08-25T17:00:28.198Z,39.08
2022-08-25T17:03:01.489Z,38.80
2022-08-25T17:05:29.711Z,39.13
2022-08-25T17:08:18.707Z,39.24
2022-08-25T17:10:46.489Z,39.30
2022-08-25T17:13:14.316Z,40.01
2022-08-25T17:15:48.626Z,40.04
2022-08-25T17:18:19.073Z,39.78
2022-08-25T17:20:48.656Z,39.76
2022-08-25T17:23:18.113Z,41.10
2022-08-25T17:25:50.393Z,41.43
2022-08-25T17:28:17.327Z,40.53
2022-08-25T17:30:45.090Z,41.64
2022-08-25T17:33:14.333Z,43.57
2022-08-25T17:35:44.961Z,45.09
2022-08-25T17:38:13.500Z,45.55
2022-08-25T17:40:40.851Z,45.94
2022-08-25T17:43:09.119Z,46.17
2022-08-25T17:45:37.083Z,46.50
2022-08-25T17:48:07.658Z,46.89
2022-08-25T17:50:36.633Z,47.42
2022-08-25T17:53:03.832Z,47.55
2022-08-25T17:55:31.609Z,48.02
2022-08-25T17:57:59.035Z,48.77
2022-08-25T18:00:25.850Z,48.92
2022-08-25T18:02:53.109Z,48.87
2022-08-25T18:05:20.402Z,49.23
2022-08-25T18:07:47.833Z,49.43
2022-08-25T18:10:16.752Z,49.82
2022-08-25T18:12:43.734Z,50.78
2022-08-25T18:15:14.240Z,51.29
2022-08-25T18:17:42.152Z,51.01
2022-08-25T18:20:15.055Z,51.59
2022-08-25T18:22:44.224Z,52.38
2022-08-25T18:25:14.669Z,53.21
2022-08-25T18:27:41.485Z,53.72
2022-08-25T18:30:10.402Z,54.13
2022-08-25T18:32:37.447Z,55.42
2022-08-25T18:35:05.923Z,55.70
2022-08-25T18:37:51.191Z,56.08
2022-08-25T18:40:24.299Z,56.30
2022-08-25T18:42:56.024Z,56.06
2022-08-25T18:45:26.317Z,56.63
2022-08-25T18:47:56.389Z,57.23
2022-08-25T18:50:25.920Z,58.04
2022-08-25T18:52:53.913Z,58.41
2022-08-25T18:55:22.737Z,59.03
2022-08-25T18:57:50.943Z,59.98
2022-08-25T19:00:23.168Z,59.49
2022-08-25T19:02:53.093Z,59.18
2022-08-25T19:05:35.595Z,59.57
2022-08-25T19:08:06.681Z,60.28
2022-08-25T19:10:36.007Z,60.55
2022-08-25T19:13:08.379Z,61.13
2022-08-25T19:15:37.751Z,62.26
2022-08-25T19:18:09.945Z,61.93
2022-08-25T19:20:37.726Z,63.17
2022-08-25T19:23:04.636Z,63.15
2022-08-25T19:25:41.419Z,63.26
2022-08-25T19:28:12.462Z,63.49
2022-08-25T19:30:50.508Z,65.27
2022-08-25T19:33:31.349Z,66.69
2022-08-25T19:36:08.948Z,66.64
2022-08-25T19:38:37.620Z,66.62
2022-08-25T19:41:14.040Z,66.78
2022-08-25T19:43:50.598Z,67.04
2022-08-25T19:46:23.487Z,69.03
2022-08-25T19:48:50.449Z,68.86
2022-08-25T19:51:19.227Z,69.47
2022-08-25T19:53:54.301Z,69.17
2022-08-25T19:56:22.623Z,69.27
2022-08-25T19:58:49.868Z,69.42
2022-08-25T20:01:18.469Z,69.70
2022-08-25T20:03:45.522Z,69.91
2022-08-25T20:06:16.041Z,69.63
2022-08-25T20:08:43.839Z,69.36
2022-08-25T20:11:10.979Z,70.12
2022-08-25T20:13:37.900Z,70.64
2022-08-25T20:16:05.587Z,70.90
2022-08-25T20:18:32.597Z,70.82
2022-08-25T20:20:59.722Z,71.12
2022-08-25T20:23:44.953Z,72.17
2022-08-25T20:26:11.733Z,72.42
2022-08-25T20:28:42.085Z,72.51
2022-08-25T20:31:09.436Z,72.78
2022-08-25T20:33:36.364Z,73.61
2022-08-25T20:36:04.945Z,74.39
2022-08-25T20:38:32.968Z,74.97
2022-08-25T20:41:01.397Z,74.74
2022-08-25T20:43:30.005Z,74.32
2022-08-25T20:46:01.926Z,73.94
2022-08-25T20:48:29.164Z,73.66
2022-08-25T20:50:57.983Z,74.28
2022-08-25T20:53:25.995Z,74.61
2022-08-25T20:55:52.793Z,74.21
2022-08-25T20:58:20.601Z,74.10
2022-08-25T21:00:47.419Z,75.41
2022-08-25T21:03:14.265Z,76.06
2022-08-25T21:05:43.349Z,75.64
2022-08-25T21:08:10.993Z,75.36
2022-08-25T21:10:38.075Z,74.93
2022-08-25T21:13:06.312Z,76.56
2022-08-25T21:15:33.166Z,77.49
2022-08-25T21:18:00.024Z,77.54
2022-08-25T21:20:27.319Z,77.41
2022-08-25T21:22:54.612Z,76.59
2022-08-25T21:25:22.221Z,76.27
2022-08-25T21:27:49.179Z,76.04
2022-08-25T21:30:16.506Z,77.22
2022-08-25T21:32:52.690Z,77.73
2022-08-25T21:35:20.333Z,77.17
2022-08-25T21:37:53.290Z,77.23
2022-08-25T21:40:22.828Z,77.86
2022-08-25T21:42:50.682Z,78.71
2022-08-25T21:45:21.051Z,78.65
2022-08-25T21:47:48.581Z,78.28
2022-08-25T21:50:15.436Z,79.02
2022-08-25T21:52:42.438Z,79.93
2022-08-25T21:55:15.750Z,80.04
2022-08-25T21:57:43.825Z,79.38
2022-08-25T22:00:13.071Z,79.11
2022-08-25T22:02:39.902Z,79.39
2022-08-25T22:05:11.618Z,79.59
2022-08-25T22:07:43.835Z,79.72
2022-08-25T22:10:16.488Z,81.28
2022-08-25T22:12:45.906Z,81.47
2022-08-25T22:15:15.651Z,80.48
2022-08-25T22:17:43.185Z,80.01
2022-08-25T22:20:11.156Z,79.51
2022-08-25T22:22:38.018Z,79.74
2022-08-25T22:25:05.597Z,80.15
2022-08-25T22:27:35.353Z,79.81
2022-08-25T22:30:02.528Z,79.92
2022-08-25T22:32:30.589Z,81.05
2022-08-25T22:34:57.421Z,81.94
2022-08-25T22:37:24.215Z,82.15
2022-08-25T22:39:51.103Z,82.26
2022-08-25T22:42:19.375Z,81.89
2022-08-25T22:44:53.950Z,81.27
2022-08-25T22:47:21.056Z,80.82
2022-08-25T22:49:48.780Z,80.83
2022-08-25T22:52:15.591Z,81.18
2022-08-25T22:54:42.424Z,80.90
2022-08-25T22:57:11.236Z,80.52
2022-08-25T22:59:39.158Z,81.62
2022-08-25T23:02:06.719Z,82.55
2022-08-25T23:04:33.597Z,83.39
2022-08-25T23:07:00.561Z,84.04
2022-08-25T23:09:27.383Z,84.36
2022-08-25T23:11:54.152Z,84.47
2022-08-25T23:14:21.691Z,83.76
2022-08-25T23:16:50.014Z,83.72
2022-08-25T23:19:18.244Z,82.79
2022-08-25T23:22:17.781Z,82.24
2022-08-25T23:24:48.218Z,83.17
2022-08-25T23:27:21.624Z,83.27
2022-08-25T23:29:50.014Z,83.10
2022-08-25T23:32:18.797Z,83.67
2022-08-25T23:34:47.200Z,84.04
2022-08-25T23:37:15.128Z,84.29
2022-08-25T23:39:45.575Z,84.09
2022-08-25T23:42:12.453Z,83.84
2022-08-25T23:44:39.258Z,84.34
2022-08-25T23:47:07.146Z,84.67
2022-08-25T23:49:34.050Z,84.52
2022-08-25T23:52:01.457Z,84.86
2022-08-25T23:54:31.123Z,85.17
2022-08-25T23:56:59.432Z,85.34
2022-08-25T23:59:26.592Z,84.68
